sensor_id;sensor_type;location;lat;lon;timestamp;pressure;altitude;pressure_sealevel;temperature;humidity
46382;BME280;66809;52.974;-2.514;2023-05-22T00:01:49;1016.1850110234521;;;11.08218731991097;35.012406675276424
46382;BME280;66809;52.974;-2.514;2023-05-22T00:03:48;1016.1739722679798;;;11.043655062902154;35.03919940572955
46382;BME280;66809;52.974;-2.514;2023-05-22T00:05:49;1016.1614488984775;;;11.029982204384973;35.062896872952734
46382;BME280;66809;52.974;-2.514;2023-05-22T00:07:49;1016.1495500195844;;;10.99404584602516;35.0821491397203
46382;BME280;66809;52.974;-2.514;2023-05-22T00:09:48;1016.1382840594482;;;10.968145849730355;35.10266753224629
46382;BME280;66809;52.974;-2.514;2023-05-22T00:11:49;1016.1274477870752;;;10.946545660692879;35.123869843932944
46382;BME280;66809;52.974;-2.514;2023-05-22T00:13:49;1016.1169847443599;;;10.907295989735152;35.14903317316732
46382;BME280;66809;52.974;-2.514;2023-05-22T00:15:48;1016.1057010275375;;;10.875237295911628;35.17078315522938
46382;BME280;66809;52.974;-2.514;2023-05-22T00:17:48;1016.094898415373;;;10.844766619326132;35.19802710883721
46382;BME280;66809;52.974;-2.514;2023-05-22T00:19:49;1016.0842662413374;;;10.81300624436938;35.22332360094058
46382;BME280;66809;52.974;-2.514;2023-05-22T00:21:48;1016.0727115622162;;;10.799205426899128;35.2368387511523
46382;BME280;66809;52.974;-2.514;2023-05-22T00:23:48;1016.0626400216894;;;10.780535570355347;35.24244347456474
46382;BME280;66809;52.974;-2.514;2023-05-22T00:25:49;1016.053135750469;;;10.777394936597686;35.243912432299766
46382;BME280;66809;52.974;-2.514;2023-05-22T00:27:48;1016.0427987988718;;;10.759136779707552;35.250502068508766
46382;BME280;66809;52.974;-2.514;2023-05-22T00:29:48;1016.0328134319835;;;10.737298479760168;35.251962482171
46382;BME280;66809;52.974;-2.514;2023-05-22T00:31:49;1016.0218116804236;;;10.713778923937355;35.25132510598501
46382;BME280;66809;52.974;-2.514;2023-05-22T00:33:48;1016.0101748635021;;;10.695026326410833;35.2384657385171
46382;BME280;66809;52.974;-2.514;2023-05-22T00:35:48;1015.998838061744;;;10.659763986855387;35.226983770177945
46382;BME280;66809;52.974;-2.514;2023-05-22T00:37:49;1015.9876681045937;;;10.648417904937114;35.223280317041386
46382;BME280;66809;52.974;-2.514;2023-05-22T00:39:48;1015.97664053844;;;10.640063848695167;35.2167451280089
46382;BME280;66809;52.974;-2.514;2023-05-22T00:41:48;1015.9653259367568;;;10.617147260237571;35.21053028395842
46382;BME280;66809;52.974;-2.514;2023-05-22T00:43:49;1015.9543926480872;;;10.591276097544297;35.20935303204107
46382;BME280;66809;52.974;-2.514;2023-05-22T00:45:49;1015.9438824649411;;;10.567192516658599;35.21713305017909
46382;BME280;66809;52.974;-2.514;2023-05-22T00:47:49;1015.9334890926402;;;10.542386365271431;35.21921758893243
46382;BME280;66809;52.974;-2.514;2023-05-22T00:49:48;1015.9219667858283;;;10.513221619396173;35.21649048669267
46382;BME280;66809;52.974;-2.514;2023-05-22T00:51:49;1015.9102251046389;;;10.482583581190797;35.212883531695226
46382;BME280;66809;52.974;-2.514;2023-05-22T00:53:49;1015.8983421620071;;;10.458172365565554;35.20573709861039
46382;BME280;66809;52.974;-2.514;2023-05-22T00:55:50;1015.8870215970591;;;10.428394307265751;35.198106612669285
46382;BME280;66809;52.974;-2.514;2023-05-22T00:57:49;1015.8759034799762;;;10.396411961202226;35.18802721247303
46382;BME280;66809;52.974;-2.514;2023-05-22T00:59:49;1015.8660570608057;;;10.369942240120501;35.183548277064865
46382;BME280;66809;52.974;-2.514;2023-05-22T01:01:49;1015.8567836786617;;;10.338371581066555;35.18673223554352
46382;BME280;66809;52.974;-2.514;2023-05-22T01:03:49;1015.848463389185;;;10.319741878788514;35.1881384796772
46382;BME280;66809;52.974;-2.514;2023-05-22T01:05:49;1015.8416573106427;;;10.277513159879383;35.18348271221441
46382;BME280;66809;52.974;-2.514;2023-05-22T01:07:49;1015.8351145847254;;;10.233452820078003;35.18914184221934
46382;BME280;66809;52.974;-2.514;2023-05-22T01:09:49;1015.8280269639602;;;10.196380933905166;35.19654227171862
46382;BME280;66809;52.974;-2.514;2023-05-22T01:11:54;1015.8212704929473;;;10.163291617961077;35.20086543564178
46382;BME280;66809;52.974;-2.514;2023-05-22T01:13:54;1015.8142815386008;;;10.146139826346733;35.207108877737284
46382;BME280;66809;52.974;-2.514;2023-05-22T01:15:55;1015.808249181888;;;10.124074000184189;35.21066246274134
46382;BME280;66809;52.974;-2.514;2023-05-22T01:17:54;1015.8025288786172;;;10.105284966614876;35.20781156226196
46382;BME280;66809;52.974;-2.514;2023-05-22T01:19:56;1015.7969981431656;;;10.093646962815916;35.202104150138716
46382;BME280;66809;52.974;-2.514;2023-05-22T01:21:58;1015.7911407897262;;;10.07663075053724;35.19698514284169
46382;BME280;66809;52.974;-2.514;2023-05-22T01:24:07;1015.7839484428331;;;10.057530825422067;35.18854791456843
46382;BME280;66809;52.974;-2.514;2023-05-22T01:26:00;1015.7759018357366;;;10.032156624542925;35.18552402508446
46382;BME280;66809;52.974;-2.514;2023-05-22T01:28:03;1015.7673496508111;;;10.009964749020131;35.17603726822578
46382;BME280;66809;52.974;-2.514;2023-05-22T01:30:00;1015.7591834812345;;;9.988370328159995;35.168756602281405
46382;BME280;66809;52.974;-2.514;2023-05-22T01:31:49;1015.7514828074146;;;9.970448512962347;35.175425785974184
46382;BME280;66809;52.974;-2.514;2023-05-22T01:33:51;1015.7454229837086;;;9.943736377921493;35.1858986030371
46382;BME280;66809;52.974;-2.514;2023-05-22T01:35:50;1015.739586836685;;;9.926645481293376;35.191724694785655
46382;BME280;66809;52.974;-2.514;2023-05-22T01:37:49;1015.7324796410334;;;9.916161543173718;35.190242088165306
46382;BME280;66809;52.974;-2.514;2023-05-22T01:39:50;1015.7241060076827;;;9.908606970779914;35.18028851143599
46382;BME280;66809;52.974;-2.514;2023-05-22T01:41:48;1015.7164747108648;;;9.891710492934441;35.168560647418516
46382;BME280;66809;52.974;-2.514;2023-05-22T01:43:48;1015.7086840465147;;;9.873713362977155;35.15595865796243
46382;BME280;66809;52.974;-2.514;2023-05-22T01:45:48;1015.69979302518;;;9.864498185092806;35.13563070415549
46382;BME280;66809;52.974;-2.514;2023-05-22T01:47:49;1015.6919829038718;;;9.847695082442623;35.11757315107254
46382;BME280;66809;52.974;-2.514;2023-05-22T01:49:48;1015.6853489171523;;;9.836317646995091;35.106474156631585
46382;BME280;66809;52.974;-2.514;2023-05-22T01:51:51;1015.6795389781748;;;9.823555916604205;35.09387738984422
46382;BME280;66809;52.974;-2.514;2023-05-22T01:53:53;1015.67407356187;;;9.80869276169047;35.082231778598846
46382;BME280;66809;52.974;-2.514;2023-05-22T01:55:54;1015.6678993394856;;;9.801451150247448;35.071747684032495
46382;BME280;66809;52.974;-2.514;2023-05-22T01:57:54;1015.6621459596435;;;9.7863191382142;35.062751768162734
46382;BME280;66809;52.974;-2.514;2023-05-22T01:59:53;1015.6568546858978;;;9.772784432663778;35.05976744736147
46382;BME280;66809;52.974;-2.514;2023-05-22T02:01:50;1015.6508068656588;;;9.767423770928184;35.059057440530935
46382;BME280;66809;52.974;-2.514;2023-05-22T02:03:50;1015.6450280215926;;;9.753937459811342;35.060818312831955
46382;BME280;66809;52.974;-2.514;2023-05-22T02:05:52;1015.6389879859858;;;9.734462568942025;35.07092098601267
46382;BME280;66809;52.974;-2.514;2023-05-22T02:07:49;1015.6313393726588;;;9.723780537345053;35.076413459812095
46382;BME280;66809;52.974;-2.514;2023-05-22T02:09:49;1015.6241748483769;;;9.710471649229381;35.08300400759193
46382;BME280;66809;52.974;-2.514;2023-05-22T02:11:49;1015.6153877071799;;;9.687205474657492;35.09706752143673
46382;BME280;66809;52.974;-2.514;2023-05-22T02:13:49;1015.6068404071045;;;9.666536444920839;35.10694414599338
46382;BME280;66809;52.974;-2.514;2023-05-22T02:15:48;1015.5979645631664;;;9.648453193978854;35.12497235682927
46382;BME280;66809;52.974;-2.514;2023-05-22T02:17:49;1015.5894673057741;;;9.613367415232979;35.14371068087737
46382;BME280;66809;52.974;-2.514;2023-05-22T02:19:49;1015.5808712876088;;;9.570802922733796;35.17412097491543
46382;BME280;66809;52.974;-2.514;2023-05-22T02:21:48;1015.5736376741655;;;9.54843462444518;35.199843422468966
46382;BME280;66809;52.974;-2.514;2023-05-22T02:23:48;1015.5674438445163;;;9.51666854803247;35.22263488495105
46382;BME280;66809;52.974;-2.514;2023-05-22T02:25:49;1015.5614323475298;;;9.479204994117945;35.2445415625654
46382;BME280;66809;52.974;-2.514;2023-05-22T02:27:48;1015.5563031044031;;;9.436573298930787;35.27281789164546
46382;BME280;66809;52.974;-2.514;2023-05-22T02:29:49;1015.5508171018555;;;9.409487175990083;35.300861919134846
46382;BME280;66809;52.974;-2.514;2023-05-22T02:31:49;1015.5456784143688;;;9.385395616213502;35.321054671410494
46382;BME280;66809;52.974;-2.514;2023-05-22T02:33:48;1015.5414254842591;;;9.36334669712349;35.34449983272814
46382;BME280;66809;52.974;-2.514;2023-05-22T02:35:48;1015.5382850116341;;;9.33579450134329;35.379044552052136
46382;BME280;66809;52.974;-2.514;2023-05-22T02:37:49;1015.537156039733;;;9.281702628270839;35.449144870532876
46382;BME280;66809;52.974;-2.514;2023-05-22T02:39:49;1015.5380757173664;;;9.236717428822693;35.52591930211164
46382;BME280;66809;52.974;-2.514;2023-05-22T02:41:48;1015.5394759758422;;;9.203510744324282;35.58341706658519
46382;BME280;66809;52.974;-2.514;2023-05-22T02:43:49;1015.5413930221283;;;9.17431181930533;35.63294768262146
46382;BME280;66809;52.974;-2.514;2023-05-22T02:45:49;1015.5445248766586;;;9.138515478159142;35.68977512498125
46382;BME280;66809;52.974;-2.514;2023-05-22T02:47:48;1015.5469137507517;;;9.110626351570136;35.739729738492926
46382;BME280;66809;52.974;-2.514;2023-05-22T02:49:49;1015.5491438608557;;;9.076622616577781;35.79212992091966
46382;BME280;66809;52.974;-2.514;2023-05-22T02:51:49;1015.5509542071263;;;9.04552395301857;35.848654982721
46382;BME280;66809;52.974;-2.514;2023-05-22T02:53:48;1015.5528003790229;;;9.017089656500433;35.89992425871727
46382;BME280;66809;52.974;-2.514;2023-05-22T02:55:49;1015.5547871405847;;;8.986165425677585;35.94866145618395
46382;BME280;66809;52.974;-2.514;2023-05-22T02:57:48;1015.556838919142;;;8.958235267940289;35.99483035573237
46382;BME280;66809;52.974;-2.514;2023-05-22T02:59:48;1015.5578658622441;;;8.92625443118225;36.037739587972496
46382;BME280;66809;52.974;-2.514;2023-05-22T03:01:49;1015.5591253309677;;;8.889651572916431;36.07633620312658
46382;BME280;66809;52.974;-2.514;2023-05-22T03:03:49;1015.559904408967;;;8.856370464127036;36.109338562097136
46382;BME280;66809;52.974;-2.514;2023-05-22T03:05:48;1015.5605469183172;;;8.830892781900584;36.13546441469783
46382;BME280;66809;52.974;-2.514;2023-05-22T03:07:48;1015.5623617891144;;;8.807500780261364;36.15644893672651
46382;BME280;66809;52.974;-2.514;2023-05-22T03:09:49;1015.563440096869;;;8.787626231714512;36.16849426917536
46382;BME280;66809;52.974;-2.514;2023-05-22T03:11:48;1015.5652967196179;;;8.765219262809419;36.16712359719267
46382;BME280;66809;52.974;-2.514;2023-05-22T03:13:49;1015.5674166648926;;;8.739843462138733;36.168509179555855
46382;BME280;66809;52.974;-2.514;2023-05-22T03:15:48;1015.5695924707585;;;8.708697526637986;36.16696404790324
46382;BME280;66809;52.974;-2.514;2023-05-22T03:17:48;1015.5714133232972;;;8.69269725959749;36.168749338702376
46382;BME280;66809;52.974;-2.514;2023-05-22T03:19:49;1015.5731816367258;;;8.68240831041449;36.16328127711045
46382;BME280;66809;52.974;-2.514;2023-05-22T03:21:48;1015.5746458301313;;;8.653270419103217;36.164170399754816
46382;BME280;66809;52.974;-2.514;2023-05-22T03:23:48;1015.5764523620539;;;8.640182642747005;36.167402906684735
46382;BME280;66809;52.974;-2.514;2023-05-22T03:25:49;1015.5786845548398;;;8.629156301662004;36.16749665005789
46382;BME280;66809;52.974;-2.514;2023-05-22T03:27:48;1015.580819385125;;;8.635560961300392;36.16483497153391
46382;BME280;66809;52.974;-2.514;2023-05-22T03:29:48;1015.5831820733952;;;8.62375869298741;36.164046994142
46382;BME280;66809;52.974;-2.514;2023-05-22T03:31:49;1015.5859853631636;;;8.599241888636824;36.166959706296176
46382;BME280;66809;52.974;-2.514;2023-05-22T03:33:48;1015.5869459538809;;;8.57946180379838;36.165563902685946
46382;BME280;66809;52.974;-2.514;2023-05-22T03:35:48;1015.5861591415412;;;8.555314725049994;36.163569388051556
46382;BME280;66809;52.974;-2.514;2023-05-22T03:37:49;1015.5834380742542;;;8.546654849771723;36.13163923024581
46382;BME280;66809;52.974;-2.514;2023-05-22T03:39:48;1015.5795584462302;;;8.526591110522517;36.09011017224878
46382;BME280;66809;52.974;-2.514;2023-05-22T03:41:48;1015.575470533445;;;8.523495258029763;36.06398516513535
46382;BME280;66809;52.974;-2.514;2023-05-22T03:43:49;1015.5719273279012;;;8.516051165705896;36.03762865993321
46382;BME280;66809;52.974;-2.514;2023-05-22T03:45:48;1015.5676237860678;;;8.51348660551005;36.00119839805081
46382;BME280;66809;52.974;-2.514;2023-05-22T03:47:49;1015.5634291708261;;;8.514400435133542;35.96454738192179
46382;BME280;66809;52.974;-2.514;2023-05-22T03:49:49;1015.5595559314321;;;8.512612807892841;35.91738078672493
46382;BME280;66809;52.974;-2.514;2023-05-22T03:51:48;1015.5568268853498;;;8.514444424569168;35.86973677311171
46382;BME280;66809;52.974;-2.514;2023-05-22T03:53:49;1015.5548213403291;;;8.519107486485304;35.8264711698581
46382;BME280;66809;52.974;-2.514;2023-05-22T03:55:49;1015.5532185019123;;;8.519061037342079;35.78032986349542
46382;BME280;66809;52.974;-2.514;2023-05-22T03:57:48;1015.5511617675671;;;8.531756333663562;35.73122806663878
46382;BME280;66809;52.974;-2.514;2023-05-22T03:59:49;1015.5491424658769;;;8.546871381953087;35.670367755567234
46382;BME280;66809;52.974;-2.514;2023-05-22T04:01:49;1015.5480162610444;;;8.557316944724311;35.615180324385236
46382;BME280;66809;52.974;-2.514;2023-05-22T04:03:49;1015.5464323200501;;;8.564493179813153;35.568680128708564
46382;BME280;66809;52.974;-2.514;2023-05-22T04:05:48;1015.5466767467591;;;8.583095020673495;35.51952681291097
46382;BME280;66809;52.974;-2.514;2023-05-22T04:07:49;1015.5455520145917;;;8.59008938128658;35.46960202933599
46382;BME280;66809;52.974;-2.514;2023-05-22T04:09:48;1015.544633551772;;;8.602425384753968;35.42798691451811
46382;BME280;66809;52.974;-2.514;2023-05-22T04:11:48;1015.5444397044434;;;8.616531230927489;35.39084682815927
46382;BME280;66809;52.974;-2.514;2023-05-22T04:13:49;1015.5446467306682;;;8.629899688251585;35.35739662804048
46382;BME280;66809;52.974;-2.514;2023-05-22T04:15:49;1015.5461335020763;;;8.651360177423104;35.326963235196544
46382;BME280;66809;52.974;-2.514;2023-05-22T04:17:49;1015.5478846051133;;;8.672400573776402;35.288599951304576
46382;BME280;66809;52.974;-2.514;2023-05-22T04:19:48;1015.5504749987782;;;8.691962234251468;35.24545053513008
46382;BME280;66809;52.974;-2.514;2023-05-22T04:21:49;1015.5533613425579;;;8.709423416743334;35.192621321920925
46382;BME280;66809;52.974;-2.514;2023-05-22T04:23:49;1015.5569426299123;;;8.71681267533919;35.15050444900941
46382;BME280;66809;52.974;-2.514;2023-05-22T04:25:49;1015.5614645713292;;;8.725712292284589;35.11428763800045
46382;BME280;66809;52.974;-2.514;2023-05-22T04:27:48;1015.5671586849097;;;8.722038201132422;35.090721579799656
46382;BME280;66809;52.974;-2.514;2023-05-22T04:29:49;1015.5731686245207;;;8.732063669789197;35.06712514088357
46382;BME280;66809;52.974;-2.514;2023-05-22T04:31:49;1015.5790417269883;;;8.752665170542334;35.0375190075653
46382;BME280;66809;52.974;-2.514;2023-05-22T04:33:48;1015.5852707768237;;;8.76970821738077;35.00023369529173
46382;BME280;66809;52.974;-2.514;2023-05-22T04:35:48;1015.5916738789837;;;8.802164809844337;34.951267946397856
46382;BME280;66809;52.974;-2.514;2023-05-22T04:37:49;1015.5980274635745;;;8.833505920439768;34.899535712764305
46382;BME280;66809;52.974;-2.514;2023-05-22T04:39:48;1015.6051859944525;;;8.851841869025689;34.84996183025405
46382;BME280;66809;52.974;-2.514;2023-05-22T04:41:49;1015.6114771332491;;;8.858744811202918;34.806692186416164
46382;BME280;66809;52.974;-2.514;2023-05-22T04:43:49;1015.6171843040057;;;8.876382434033655;34.77235869229133
46382;BME280;66809;52.974;-2.514;2023-05-22T04:45:48;1015.6236176590185;;;8.886638741507035;34.74260363335419
46382;BME280;66809;52.974;-2.514;2023-05-22T04:47:49;1015.6305649066102;;;8.891836128807249;34.71831779883298
46382;BME280;66809;52.974;-2.514;2023-05-22T04:49:48;1015.6372179760582;;;8.914991866540596;34.691099117407795
46382;BME280;66809;52.974;-2.514;2023-05-22T04:51:48;1015.6423508867406;;;8.925959410408767;34.659056827304234
46382;BME280;66809;52.974;-2.514;2023-05-22T04:53:49;1015.6473147900859;;;8.938605352082881;34.627920605069434
46382;BME280;66809;52.974;-2.514;2023-05-22T04:55:48;1015.6530421831231;;;8.951932823396852;34.61073045376913
46382;BME280;66809;52.974;-2.514;2023-05-22T04:57:48;1015.6592133101495;;;8.948716945857853;34.594028457773874
46382;BME280;66809;52.974;-2.514;2023-05-22T04:59:49;1015.6661849902925;;;8.958399987466278;34.58092925258345
46382;BME280;66809;52.974;-2.514;2023-05-22T05:01:48;1015.6729397751831;;;8.973281833836305;34.56724077128092
46382;BME280;66809;52.974;-2.514;2023-05-22T05:03:49;1015.6810966772463;;;8.996539385358592;34.553769395284895
46382;BME280;66809;52.974;-2.514;2023-05-22T05:05:49;1015.6871639739308;;;9.004827705034243;34.551557135499955
46382;BME280;66809;52.974;-2.514;2023-05-22T05:07:49;1015.6947207748758;;;9.029703878533063;34.54932291696689
46382;BME280;66809;52.974;-2.514;2023-05-22T05:09:48;1015.7042445598003;;;9.030579776743373;34.5441384923631
46382;BME280;66809;52.974;-2.514;2023-05-22T05:11:48;1015.7124952553911;;;9.04418360386716;34.53883379419759
46382;BME280;66809;52.974;-2.514;2023-05-22T05:13:48;1015.7203335363599;;;9.06750947011985;34.528398321018585
46382;BME280;66809;52.974;-2.514;2023-05-22T05:15:49;1015.7266301368212;;;9.091414158466351;34.510947227754805
46382;BME280;66809;52.974;-2.514;2023-05-22T05:17:48;1015.7331312440987;;;9.115477569273269;34.503725555608995
46382;BME280;66809;52.974;-2.514;2023-05-22T05:19:48;1015.738914976695;;;9.140979763958727;34.49761751134928
46382;BME280;66809;52.974;-2.514;2023-05-22T05:21:49;1015.7445026178918;;;9.176091829418832;34.49732933593538
46382;BME280;66809;52.974;-2.514;2023-05-22T05:23:48;1015.749092535406;;;9.219647900633127;34.48902648009997
46382;BME280;66809;52.974;-2.514;2023-05-22T05:25:48;1015.7525862502414;;;9.271723613175075;34.475153639268136
46382;BME280;66809;52.974;-2.514;2023-05-22T05:27:49;1015.7552410552377;;;9.332209751799136;34.44886147264224
46382;BME280;66809;52.974;-2.514;2023-05-22T05:29:48;1015.7582575073047;;;9.382838083399179;34.417419052651546
46382;BME280;66809;52.974;-2.514;2023-05-22T05:31:48;1015.7620045359257;;;9.439396262704692;34.38507823597023
46382;BME280;66809;52.974;-2.514;2023-05-22T05:33:49;1015.7641811563341;;;9.504052010660596;34.35945600295746
46382;BME280;66809;52.974;-2.514;2023-05-22T05:35:49;1015.7668537776538;;;9.566065305207854;34.34407301416039
46382;BME280;66809;52.974;-2.514;2023-05-22T05:37:49;1015.7701309458774;;;9.626984648834469;34.32523236570079
46382;BME280;66809;52.974;-2.514;2023-05-22T05:39:48;1015.7731351881545;;;9.723644120869364;34.295580831233075
46382;BME280;66809;52.974;-2.514;2023-05-22T05:41:49;1015.7776061861604;;;9.823506116317246;34.263128366139874
46382;BME280;66809;52.974;-2.514;2023-05-22T05:43:49;1015.7829287916813;;;9.917794686326706;34.22571221983126
46382;BME280;66809;52.974;-2.514;2023-05-22T05:45:49;1015.7887782127378;;;10.035472940944816;34.177428824826286
46382;BME280;66809;52.974;-2.514;2023-05-22T05:47:48;1015.7941498906471;;;10.172034109127628;34.11481188964509
46382;BME280;66809;52.974;-2.514;2023-05-22T05:49:48;1015.7994327931466;;;10.307310582569329;34.04352143094267
46382;BME280;66809;52.974;-2.514;2023-05-22T05:51:49;1015.8029298105188;;;10.462666444502796;33.95814480648145
46382;BME280;66809;52.974;-2.514;2023-05-22T05:53:48;1015.806152599421;;;10.617919719158317;33.86059200868765
46382;BME280;66809;52.974;-2.514;2023-05-22T05:55:48;1015.8102689977284;;;10.787434996130193;33.75199508229253
46382;BME280;66809;52.974;-2.514;2023-05-22T05:57:49;1015.8148294081741;;;10.968187945382546;33.64557266048403
46382;BME280;66809;52.974;-2.514;2023-05-22T05:59:48;1015.8203142780906;;;11.152233473390453;33.54828311812662
46382;BME280;66809;52.974;-2.514;2023-05-22T06:01:48;1015.8259897336553;;;11.349853492976857;33.444711386061066
46382;BME280;66809;52.974;-2.514;2023-05-22T06:03:49;1015.831743286062;;;11.552070718572086;33.32101674619606
46382;BME280;66809;52.974;-2.514;2023-05-22T06:05:48;1015.838462261344;;;11.765007247603403;33.186370243606795
46382;BME280;66809;52.974;-2.514;2023-05-22T06:07:48;1015.8450806828694;;;11.974039670713926;33.04082571980517
46382;BME280;66809;52.974;-2.514;2023-05-22T06:09:49;1015.8497603234504;;;12.182826925246639;32.89099118277069
46382;BME280;66809;52.974;-2.514;2023-05-22T06:11:48;1015.8559349635357;;;12.37837210800833;32.749370059509296
46382;BME280;66809;52.974;-2.514;2023-05-22T06:13:48;1015.8635556903948;;;12.565154420755611;32.61943041554119
46382;BME280;66809;52.974;-2.514;2023-05-22T06:15:49;1015.8707836416727;;;12.7362979287474;32.50678207388545
46382;BME280;66809;52.974;-2.514;2023-05-22T06:17:48;1015.8780557299792;;;12.892799224158413;32.4040663368507
46382;BME280;66809;52.974;-2.514;2023-05-22T06:19:48;1015.8847480409163;;;13.04470015112852;32.315576446627354
46382;BME280;66809;52.974;-2.514;2023-05-22T06:21:49;1015.8923199172042;;;13.184879923628783;32.247695950724946
46382;BME280;66809;52.974;-2.514;2023-05-22T06:23:49;1015.8998714254564;;;13.3154139553832;32.18902347101672
46382;BME280;66809;52.974;-2.514;2023-05-22T06:25:49;1015.9077349775232;;;13.438713772025583;32.14466525757948
46382;BME280;66809;52.974;-2.514;2023-05-22T06:27:48;1015.9158555071259;;;13.558138083421344;32.11998610706467
46382;BME280;66809;52.974;-2.514;2023-05-22T06:29:48;1015.923773104902;;;13.672779403170306;32.104782008804456
46382;BME280;66809;52.974;-2.514;2023-05-22T06:31:49;1015.9309570210938;;;13.780169629203673;32.09628463420678
46382;BME280;66809;52.974;-2.514;2023-05-22T06:33:49;1015.9393631376441;;;13.884919455206564;32.09716371512354
46382;BME280;66809;52.974;-2.514;2023-05-22T06:35:48;1015.9486181945573;;;13.978771696177468;32.097706995321566
46382;BME280;66809;52.974;-2.514;2023-05-22T06:37:49;1015.9580855424146;;;14.068569514561744;32.10416247857985
46382;BME280;66809;52.974;-2.514;2023-05-22T06:39:48;1015.9678423102653;;;14.143551430264823;32.12759537592677
46382;BME280;66809;52.974;-2.514;2023-05-22T06:41:48;1015.976426696283;;;14.206630429921477;32.159372050993255
46382;BME280;66809;52.974;-2.514;2023-05-22T06:43:49;1015.9848024827457;;;14.271425519256548;32.198610306125005
46382;BME280;66809;52.974;-2.514;2023-05-22T06:45:49;1015.9934525163642;;;14.324110916749838;32.248698700204294
46382;BME280;66809;52.974;-2.514;2023-05-22T06:47:51;1016.003139910327;;;14.358134936986229;32.312840031413
46382;BME280;66809;52.974;-2.514;2023-05-22T06:49:49;1016.0131177452895;;;14.382169384121566;32.394678535996796
46382;BME280;66809;52.974;-2.514;2023-05-22T06:51:49;1016.0257468154289;;;14.392721038635637;32.496502777542084
46382;BME280;66809;52.974;-2.514;2023-05-22T06:53:48;1016.0390583280571;;;14.399714049104976;32.613955200101415
46382;BME280;66809;52.974;-2.514;2023-05-22T06:55:48;1016.0519345139016;;;14.400094401097563;32.73676310536465
46382;BME280;66809;52.974;-2.514;2023-05-22T06:57:49;1016.0648920061374;;;14.401287539260112;32.862118323174535
46382;BME280;66809;52.974;-2.514;2023-05-22T06:59:48;1016.07814164599;;;14.377679044683106;33.001103910495914
46382;BME280;66809;52.974;-2.514;2023-05-22T07:01:48;1016.091454056876;;;14.334900069051638;33.15869645209182
46382;BME280;66809;52.974;-2.514;2023-05-22T07:03:49;1016.1034164050974;;;14.278359106316525;33.35151003163834
46382;BME280;66809;52.974;-2.514;2023-05-22T07:05:48;1016.115245228206;;;14.216354270215833;33.56751278729623
46382;BME280;66809;52.974;-2.514;2023-05-22T07:07:48;1016.1270926493762;;;14.147652113210219;33.808672469644165
46382;BME280;66809;52.974;-2.514;2023-05-22T07:09:49;1016.1405285264137;;;14.093619042005527;34.06397153888472
46382;BME280;66809;52.974;-2.514;2023-05-22T07:11:48;1016.1540406470269;;;14.045461585645125;34.32026144653632